createdAt,value
2018-12-31T00:01:04.503Z,48.60
2018-12-31T00:03:33.562Z,49.20
2018-12-31T00:06:02.619Z,48.60
2018-12-31T00:08:31.666Z,48.50
2018-12-31T00:11:00.781Z,48.40
2018-12-31T00:13:29.834Z,48.30
2018-12-31T00:15:58.806Z,48.20
2018-12-31T00:18:27.804Z,48.20
2018-12-31T00:20:56.757Z,48.10
2018-12-31T00:23:25.741Z,48.10
2018-12-31T00:25:54.766Z,48.50
2018-12-31T00:28:24.011Z,49.00
2018-12-31T00:30:53.443Z,49.00
2018-12-31T00:33:22.935Z,48.90
2018-12-31T00:35:52.532Z,48.80
2018-12-31T00:38:22.153Z,48.80
2018-12-31T00:40:51.893Z,48.70
2018-12-31T00:43:21.667Z,48.80
2018-12-31T00:45:51.410Z,48.70
2018-12-31T00:48:21.235Z,49.20
2018-12-31T00:50:51.048Z,48.50
2018-12-31T00:53:20.647Z,48.40
2018-12-31T00:55:50.384Z,48.50
2018-12-31T00:58:19.882Z,48.40
2018-12-31T01:00:49.499Z,48.30
2018-12-31T01:03:19.314Z,48.20
2018-12-31T01:05:49.151Z,48.20
2018-12-31T01:08:18.808Z,48.10
2018-12-31T01:10:48.600Z,48.10
2018-12-31T01:13:18.262Z,48.10
2018-12-31T01:15:49.225Z,48.00
2018-12-31T01:18:18.879Z,48.00
2018-12-31T01:20:48.605Z,47.90
2018-12-31T01:23:18.192Z,47.90
2018-12-31T01:25:48.038Z,47.80
2018-12-31T01:28:17.749Z,47.70
2018-12-31T01:30:47.450Z,47.80
2018-12-31T01:33:17.022Z,47.70
2018-12-31T01:35:46.728Z,47.60
2018-12-31T01:38:16.304Z,47.60
2018-12-31T01:40:46.026Z,47.50
2018-12-31T01:43:15.725Z,47.50
2018-12-31T01:45:45.317Z,47.50
2018-12-31T01:48:15.086Z,47.40
2018-12-31T01:50:44.655Z,47.30
2018-12-31T01:53:14.009Z,47.20
2018-12-31T01:55:43.775Z,47.20
2018-12-31T01:58:12.778Z,47.30
2018-12-31T02:00:41.815Z,47.50
2018-12-31T02:03:10.928Z,47.60
2018-12-31T02:05:39.986Z,47.60
2018-12-31T02:08:09.018Z,47.60
2018-12-31T02:10:38.147Z,47.60
2018-12-31T02:13:07.190Z,47.60
2018-12-31T02:15:36.239Z,47.60
2018-12-31T02:18:05.211Z,47.60
2018-12-31T02:20:34.278Z,47.70
2018-12-31T02:23:03.242Z,47.50
2018-12-31T02:25:32.291Z,47.50
2018-12-31T02:28:01.251Z,47.40
2018-12-31T02:30:30.287Z,47.40
2018-12-31T02:32:59.759Z,47.40
2018-12-31T02:35:28.702Z,47.30
2018-12-31T02:37:57.579Z,47.30
2018-12-31T02:40:26.615Z,47.30
2018-12-31T02:42:55.592Z,47.20
2018-12-31T02:45:24.642Z,47.20
2018-12-31T02:47:53.674Z,47.10
2018-12-31T02:50:22.733Z,47.10
2018-12-31T02:52:51.797Z,47.20
2018-12-31T02:55:20.837Z,47.00
2018-12-31T02:57:49.807Z,47.00
2018-12-31T03:00:19.321Z,47.10
2018-12-31T03:02:48.353Z,47.00
2018-12-31T03:05:17.310Z,47.00
2018-12-31T03:07:46.367Z,47.00
2018-12-31T03:10:15.413Z,47.00
2018-12-31T03:12:44.451Z,46.90
2018-12-31T03:15:13.479Z,46.90
2018-12-31T03:17:42.652Z,46.90
2018-12-31T03:20:11.666Z,46.80
2018-12-31T03:22:40.643Z,46.80
2018-12-31T03:25:09.700Z,46.80
2018-12-31T03:27:38.744Z,46.80
2018-12-31T03:30:07.781Z,46.70
2018-12-31T03:32:36.821Z,46.80
2018-12-31T03:35:05.989Z,46.70
2018-12-31T03:37:35.015Z,46.70
2018-12-31T03:40:04.158Z,46.70
2018-12-31T03:42:33.186Z,46.60
2018-12-31T03:45:02.243Z,46.60
2018-12-31T03:47:31.261Z,46.60
2018-12-31T03:50:00.377Z,46.60
2018-12-31T03:52:29.423Z,46.60
2018-12-31T03:54:58.428Z,46.60
2018-12-31T03:57:27.396Z,46.60
2018-12-31T03:59:56.426Z,46.60
2018-12-31T04:02:25.482Z,46.50
2018-12-31T04:04:54.421Z,46.50
2018-12-31T04:07:23.446Z,46.50
2018-12-31T04:09:52.455Z,46.50
2018-12-31T04:12:21.456Z,46.60
2018-12-31T04:14:50.518Z,46.50
2018-12-31T04:17:19.539Z,46.50
2018-12-31T04:19:48.585Z,46.50
2018-12-31T04:22:17.519Z,46.50
2018-12-31T04:24:46.478Z,46.50
2018-12-31T04:27:15.505Z,46.50
2018-12-31T04:29:44.451Z,46.50
2018-12-31T04:32:13.418Z,46.50
2018-12-31T04:34:42.526Z,46.50
2018-12-31T04:37:11.487Z,46.50
2018-12-31T04:39:40.445Z,46.50
2018-12-31T04:42:09.483Z,46.50
2018-12-31T04:44:38.344Z,46.50
2018-12-31T04:47:07.369Z,46.50
2018-12-31T04:49:36.307Z,46.50
2018-12-31T04:52:05.333Z,46.40
2018-12-31T04:54:34.381Z,46.50
2018-12-31T04:57:03.392Z,46.50
2018-12-31T04:59:32.277Z,46.50
2018-12-31T05:02:01.200Z,46.50
2018-12-31T05:04:30.098Z,46.50
2018-12-31T05:06:59.117Z,46.50
2018-12-31T05:09:28.179Z,46.50
2018-12-31T05:11:57.131Z,46.50
2018-12-31T05:14:26.240Z,46.50
2018-12-31T05:16:55.277Z,46.50
2018-12-31T05:19:24.310Z,46.50
2018-12-31T05:21:53.278Z,46.50
2018-12-31T05:24:22.297Z,46.50
2018-12-31T05:26:51.265Z,46.50
2018-12-31T05:29:20.130Z,46.50
2018-12-31T05:31:49.106Z,46.50
2018-12-31T05:34:18.122Z,46.50
2018-12-31T05:36:47.152Z,46.50
2018-12-31T05:39:16.182Z,46.50
2018-12-31T05:41:45.218Z,46.50
2018-12-31T05:44:14.259Z,46.50
2018-12-31T05:46:43.197Z,46.50
2018-12-31T05:49:12.170Z,46.50
2018-12-31T05:51:41.116Z,46.50
2018-12-31T05:54:10.060Z,46.50
2018-12-31T05:56:39.085Z,46.50
2018-12-31T05:59:08.025Z,46.50
2018-12-31T06:01:36.987Z,46.50
2018-12-31T06:04:05.925Z,46.40
2018-12-31T06:06:34.894Z,46.40
2018-12-31T06:09:05.346Z,46.50
2018-12-31T06:11:34.377Z,46.40
2018-12-31T06:14:03.411Z,46.40
2018-12-31T06:16:32.391Z,46.50
2018-12-31T06:19:01.346Z,46.40
2018-12-31T06:21:30.382Z,46.40
2018-12-31T06:23:59.416Z,46.40
2018-12-31T06:26:28.450Z,46.50
2018-12-31T06:28:57.418Z,46.50
2018-12-31T06:31:26.285Z,46.50
2018-12-31T06:33:55.393Z,46.50
2018-12-31T06:36:24.467Z,46.50
2018-12-31T06:38:53.518Z,46.50
2018-12-31T06:41:22.494Z,46.40
2018-12-31T06:43:51.442Z,46.50
2018-12-31T06:46:20.413Z,46.50
2018-12-31T06:48:49.451Z,46.50
2018-12-31T06:51:18.515Z,46.50
2018-12-31T06:53:47.540Z,46.50
2018-12-31T06:56:16.589Z,46.50
2018-12-31T06:58:45.564Z,46.50
2018-12-31T07:01:14.621Z,46.50
2018-12-31T07:03:43.552Z,46.50
2018-12-31T07:06:12.437Z,46.50
2018-12-31T07:08:41.389Z,46.50
2018-12-31T07:11:10.283Z,46.50
2018-12-31T07:13:39.219Z,46.50
2018-12-31T07:16:08.094Z,46.50
2018-12-31T07:18:36.958Z,46.50
2018-12-31T07:21:05.841Z,46.50
2018-12-31T07:23:34.708Z,46.50
2018-12-31T07:26:03.678Z,46.50
2018-12-31T07:28:32.702Z,46.50
2018-12-31T07:31:01.657Z,46.50
2018-12-31T07:33:30.613Z,46.50
2018-12-31T07:35:59.589Z,46.50
2018-12-31T07:38:28.451Z,46.50
2018-12-31T07:40:57.291Z,46.50
2018-12-31T07:43:26.330Z,46.50
2018-12-31T07:45:55.375Z,46.50
2018-12-31T07:48:24.418Z,46.60
2018-12-31T07:50:53.441Z,46.60
2018-12-31T07:53:22.412Z,46.60
2018-12-31T07:55:51.457Z,46.60
2018-12-31T07:58:20.405Z,46.60
2018-12-31T08:00:49.436Z,46.60
2018-12-31T08:03:18.362Z,46.60
2018-12-31T08:05:47.443Z,46.60
2018-12-31T08:08:16.406Z,46.60
2018-12-31T08:10:45.273Z,46.50
2018-12-31T08:13:14.330Z,46.50
2018-12-31T08:15:43.350Z,46.60
2018-12-31T08:18:12.385Z,46.60
2018-12-31T08:20:41.359Z,46.50
2018-12-31T08:23:10.305Z,46.60
2018-12-31T08:25:39.156Z,46.50
2018-12-31T08:28:08.114Z,46.50
2018-12-31T08:30:37.086Z,46.50
2018-12-31T08:33:05.985Z,46.60
2018-12-31T08:35:35.027Z,46.60
2018-12-31T08:38:03.969Z,46.60
2018-12-31T08:40:33.009Z,46.60
2018-12-31T08:43:02.049Z,46.60
2018-12-31T08:45:31.085Z,46.60
2018-12-31T08:48:00.138Z,46.80
2018-12-31T08:50:29.162Z,46.70
2018-12-31T08:52:58.221Z,46.70
2018-12-31T08:55:27.173Z,46.70
2018-12-31T08:57:56.228Z,46.70
2018-12-31T09:00:25.247Z,46.70
2018-12-31T09:02:54.277Z,46.70
2018-12-31T09:05:23.318Z,46.70
2018-12-31T09:07:52.390Z,46.70
2018-12-31T09:10:21.261Z,46.70
2018-12-31T09:12:50.216Z,46.70
2018-12-31T09:15:19.161Z,47.40
2018-12-31T09:17:48.209Z,46.70
2018-12-31T09:20:17.187Z,46.70
2018-12-31T09:22:46.247Z,46.60
2018-12-31T09:25:15.275Z,46.70
2018-12-31T09:27:44.245Z,46.80
2018-12-31T09:30:13.280Z,46.70
2018-12-31T09:32:42.302Z,46.80
2018-12-31T09:35:11.357Z,46.70
2018-12-31T09:37:40.317Z,46.70
2018-12-31T09:40:09.281Z,46.70
2018-12-31T09:42:38.330Z,46.70
2018-12-31T09:45:07.314Z,46.70
2018-12-31T09:47:36.367Z,46.70
2018-12-31T09:50:05.455Z,46.70
2018-12-31T09:52:34.494Z,46.70
2018-12-31T09:55:03.548Z,46.80
2018-12-31T09:57:32.606Z,46.80
2018-12-31T10:00:01.595Z,46.70
2018-12-31T10:02:30.641Z,46.70
2018-12-31T10:04:59.721Z,46.80
2018-12-31T10:07:28.773Z,46.70
2018-12-31T10:09:57.804Z,46.90
2018-12-31T10:12:26.703Z,46.90
2018-12-31T10:14:55.582Z,47.00
2018-12-31T10:17:24.543Z,47.20
2018-12-31T10:19:53.669Z,47.20
2018-12-31T10:22:22.738Z,47.40
2018-12-31T10:24:51.738Z,47.40
2018-12-31T10:27:20.777Z,47.40
2018-12-31T10:29:49.817Z,47.50
2018-12-31T10:32:18.782Z,47.50
2018-12-31T10:34:47.678Z,47.40
2018-12-31T10:37:16.722Z,47.50
2018-12-31T10:39:45.755Z,47.50
2018-12-31T10:42:14.809Z,47.50
2018-12-31T10:44:43.878Z,47.40
2018-12-31T10:47:12.901Z,47.30
2018-12-31T10:49:41.954Z,47.40
2018-12-31T10:52:11.094Z,47.30
2018-12-31T10:54:40.050Z,47.40
2018-12-31T10:57:09.101Z,47.30
2018-12-31T10:59:38.156Z,47.30
2018-12-31T11:02:07.176Z,47.30
2018-12-31T11:04:36.237Z,47.30
2018-12-31T11:07:05.259Z,47.30
2018-12-31T11:09:34.251Z,47.30
2018-12-31T11:12:03.315Z,47.20
2018-12-31T11:14:32.365Z,47.20
2018-12-31T11:17:01.411Z,47.20
2018-12-31T11:19:30.377Z,47.20
2018-12-31T11:21:59.426Z,47.20
2018-12-31T11:24:28.405Z,47.20
2018-12-31T11:26:57.454Z,47.30
2018-12-31T11:29:26.509Z,47.20
2018-12-31T11:31:55.540Z,47.20
2018-12-31T11:34:24.594Z,47.20
2018-12-31T11:36:53.476Z,47.20
2018-12-31T11:39:22.328Z,47.20
2018-12-31T11:41:51.276Z,47.20
2018-12-31T11:44:20.203Z,47.20
2018-12-31T11:46:49.056Z,47.20
2018-12-31T11:49:17.941Z,47.20
2018-12-31T11:51:46.866Z,47.20
2018-12-31T11:54:15.901Z,47.20
2018-12-31T11:56:44.944Z,47.20
2018-12-31T11:59:13.978Z,47.20
2018-12-31T12:01:43.086Z,47.20
2018-12-31T12:04:12.129Z,47.20
2018-12-31T12:06:41.106Z,47.20
2018-12-31T12:09:10.137Z,47.20
2018-12-31T12:11:39.064Z,47.20
2018-12-31T12:14:08.029Z,47.20
2018-12-31T12:16:37.086Z,47.20
2018-12-31T12:19:06.503Z,47.20
2018-12-31T12:21:35.546Z,47.10
2018-12-31T12:24:04.526Z,47.10
2018-12-31T12:26:33.522Z,47.10
2018-12-31T12:29:02.585Z,47.20
2018-12-31T12:31:31.998Z,47.10
2018-12-31T12:34:00.882Z,47.20
2018-12-31T12:36:29.938Z,47.20
2018-12-31T12:38:59.006Z,47.20
2018-12-31T12:41:28.082Z,47.20
2018-12-31T12:43:57.567Z,47.20
2018-12-31T12:46:26.620Z,47.20
2018-12-31T12:48:55.662Z,47.20
2018-12-31T12:51:24.672Z,47.90
2018-12-31T12:53:53.703Z,47.20
2018-12-31T12:56:22.934Z,47.20
2018-12-31T12:58:52.065Z,47.20
2018-12-31T13:01:21.094Z,47.20
2018-12-31T13:03:50.154Z,47.20
2018-12-31T13:06:19.221Z,47.20
2018-12-31T13:08:48.345Z,47.20
2018-12-31T13:11:17.442Z,47.20
2018-12-31T13:13:46.486Z,47.30
2018-12-31T13:16:15.509Z,47.20
2018-12-31T13:18:44.465Z,47.20
2018-12-31T13:21:13.491Z,47.20
2018-12-31T13:23:42.528Z,47.20
2018-12-31T13:26:11.543Z,47.20
2018-12-31T13:28:40.495Z,47.20
2018-12-31T13:31:09.545Z,47.20
2018-12-31T13:33:38.521Z,47.20
2018-12-31T13:36:07.402Z,47.20
2018-12-31T13:38:36.496Z,47.20
2018-12-31T13:41:05.595Z,47.20
2018-12-31T13:43:34.649Z,47.20
2018-12-31T13:46:03.628Z,47.20
2018-12-31T13:48:32.579Z,47.20
2018-12-31T13:51:01.666Z,47.20
2018-12-31T13:53:31.537Z,47.20
2018-12-31T13:56:00.581Z,47.20
2018-12-31T13:58:29.463Z,47.30
2018-12-31T14:00:58.527Z,47.20
2018-12-31T14:03:27.553Z,47.20
2018-12-31T14:05:56.578Z,47.20
2018-12-31T14:08:25.561Z,47.20
2018-12-31T14:10:54.558Z,47.30
2018-12-31T14:13:23.462Z,47.30
2018-12-31T14:15:52.588Z,47.30
2018-12-31T14:18:21.621Z,47.40
2018-12-31T14:20:50.670Z,47.40
2018-12-31T14:23:19.718Z,47.40
2018-12-31T14:25:48.793Z,47.40
2018-12-31T14:28:17.917Z,47.50
2018-12-31T14:30:46.975Z,47.60
2018-12-31T14:33:16.611Z,47.70
2018-12-31T14:35:46.164Z,47.70
2018-12-31T14:38:15.172Z,47.80
2018-12-31T14:40:44.237Z,47.90
2018-12-31T14:43:13.270Z,48.00
2018-12-31T14:45:42.963Z,48.10
2018-12-31T14:48:13.001Z,48.10
2018-12-31T14:50:42.931Z,48.10
2018-12-31T14:53:11.943Z,48.10
2018-12-31T14:55:40.926Z,48.10
2018-12-31T14:58:10.043Z,48.10
2018-12-31T15:00:39.712Z,48.20
2018-12-31T15:03:10.379Z,48.30
2018-12-31T15:05:40.247Z,48.20
2018-12-31T15:08:09.874Z,48.20
2018-12-31T15:10:39.743Z,48.20
2018-12-31T15:13:09.813Z,48.30
2018-12-31T15:15:39.669Z,48.30
2018-12-31T15:18:09.897Z,48.30
2018-12-31T15:20:42.031Z,48.30
2018-12-31T15:23:11.836Z,48.40
2018-12-31T15:25:41.576Z,48.40
2018-12-31T15:28:11.319Z,48.40
2018-12-31T15:30:41.137Z,48.40
2018-12-31T15:33:11.103Z,48.40
2018-12-31T15:35:40.763Z,48.40
2018-12-31T15:38:10.530Z,48.50
2018-12-31T15:40:40.196Z,48.60
2018-12-31T15:43:09.871Z,48.50
2018-12-31T15:45:40.026Z,48.60
2018-12-31T15:48:09.591Z,48.60
2018-12-31T15:50:39.261Z,48.50
2018-12-31T15:53:08.924Z,48.50
2018-12-31T15:55:38.506Z,48.60
2018-12-31T15:58:08.158Z,48.80
2018-12-31T16:00:37.847Z,48.80
2018-12-31T16:03:07.861Z,48.80
2018-12-31T16:05:37.522Z,48.80
2018-12-31T16:08:07.342Z,48.80
2018-12-31T16:10:37.969Z,48.80
2018-12-31T16:13:07.896Z,48.80
2018-12-31T16:15:37.601Z,49.00
2018-12-31T16:18:07.268Z,48.90
2018-12-31T16:20:37.519Z,49.00
2018-12-31T16:23:07.244Z,48.90
2018-12-31T16:25:37.837Z,48.90
2018-12-31T16:28:07.501Z,49.00
2018-12-31T16:30:37.213Z,48.90
2018-12-31T16:33:07.152Z,48.90
2018-12-31T16:35:36.908Z,48.90
2018-12-31T16:38:06.568Z,48.90
2018-12-31T16:40:36.266Z,48.90
2018-12-31T16:43:06.154Z,49.20
2018-12-31T16:45:35.931Z,49.10
2018-12-31T16:48:05.920Z,49.10
2018-12-31T16:50:35.019Z,49.10
2018-12-31T16:53:04.070Z,49.10
2018-12-31T16:55:34.136Z,49.20
2018-12-31T16:58:03.324Z,49.20
2018-12-31T17:00:32.377Z,49.20
2018-12-31T17:03:01.394Z,49.20
2018-12-31T17:05:30.416Z,49.20
2018-12-31T17:07:59.302Z,49.20
2018-12-31T17:10:28.542Z,49.20
2018-12-31T17:12:57.565Z,49.20
2018-12-31T17:15:26.681Z,49.90
2018-12-31T17:17:56.901Z,49.20
2018-12-31T17:20:25.974Z,49.20
2018-12-31T17:22:54.937Z,49.20
2018-12-31T17:25:23.982Z,49.20
2018-12-31T17:27:53.032Z,49.20
2018-12-31T17:30:22.084Z,49.20
2018-12-31T17:32:51.053Z,49.20
2018-12-31T17:35:20.237Z,49.90
2018-12-31T17:37:49.211Z,49.20
2018-12-31T17:40:18.303Z,49.20
2018-12-31T17:42:47.180Z,49.20
2018-12-31T17:45:22.969Z,49.30
2018-12-31T17:47:46.754Z,49.20
2018-12-31T17:50:15.797Z,49.10
2018-12-31T17:52:44.833Z,49.10
2018-12-31T17:55:13.801Z,49.10
2018-12-31T17:57:45.022Z,49.20
2018-12-31T18:00:14.092Z,49.20
2018-12-31T18:02:42.985Z,49.20
2018-12-31T18:05:12.021Z,49.20
2018-12-31T18:07:41.037Z,49.20
2018-12-31T18:10:10.401Z,49.10
2018-12-31T18:12:39.558Z,49.10
2018-12-31T18:15:08.639Z,49.10
2018-12-31T18:17:37.665Z,49.10
2018-12-31T18:20:08.761Z,49.00
2018-12-31T18:22:37.721Z,49.00
2018-12-31T18:25:06.756Z,49.00
2018-12-31T18:27:35.857Z,49.00
2018-12-31T18:30:05.487Z,49.00
2018-12-31T18:32:34.488Z,49.00
2018-12-31T18:35:03.534Z,49.10
2018-12-31T18:37:32.646Z,49.10
2018-12-31T18:40:01.591Z,49.20
2018-12-31T18:42:30.452Z,49.30
2018-12-31T18:44:59.513Z,49.30
2018-12-31T18:47:28.569Z,49.40
2018-12-31T18:49:57.617Z,49.40
2018-12-31T18:52:26.658Z,49.30
2018-12-31T18:54:55.706Z,49.20
2018-12-31T18:57:24.628Z,49.30
2018-12-31T18:59:53.576Z,49.20
2018-12-31T19:02:22.801Z,49.10
2018-12-31T19:04:51.842Z,49.10
2018-12-31T19:07:20.885Z,49.10
2018-12-31T19:09:49.909Z,49.00
2018-12-31T19:12:18.810Z,49.00
2018-12-31T19:14:48.149Z,49.00
2018-12-31T19:17:17.193Z,48.90
2018-12-31T19:19:46.223Z,48.90
2018-12-31T19:22:15.269Z,48.90
2018-12-31T19:24:44.363Z,48.90
2018-12-31T19:27:13.798Z,48.90
2018-12-31T19:29:42.908Z,48.80
2018-12-31T19:32:11.946Z,48.80
2018-12-31T19:34:41.045Z,48.70
2018-12-31T19:37:10.117Z,48.70
2018-12-31T19:39:39.078Z,48.70
2018-12-31T19:42:08.132Z,48.70
2018-12-31T19:44:37.120Z,48.70
2018-12-31T19:47:06.154Z,48.70
2018-12-31T19:49:35.200Z,48.70
2018-12-31T19:52:04.225Z,48.60
2018-12-31T19:54:33.190Z,48.60
2018-12-31T19:57:02.225Z,48.60
2018-12-31T19:59:31.265Z,48.70
2018-12-31T20:02:00.210Z,48.60
2018-12-31T20:04:29.231Z,48.60
2018-12-31T20:07:01.320Z,48.60
2018-12-31T20:09:29.024Z,48.60
2018-12-31T20:11:57.970Z,48.60
2018-12-31T20:14:27.081Z,48.60
2018-12-31T20:16:56.125Z,48.60
2018-12-31T20:19:25.156Z,49.20
2018-12-31T20:21:54.133Z,48.40
2018-12-31T20:24:23.161Z,48.40
2018-12-31T20:26:52.211Z,48.40
2018-12-31T20:29:21.122Z,48.40
2018-12-31T20:31:50.466Z,48.40
2018-12-31T20:34:19.400Z,48.40
2018-12-31T20:36:48.545Z,48.40
2018-12-31T20:39:17.573Z,48.40
2018-12-31T20:41:46.561Z,48.40
2018-12-31T20:44:15.512Z,48.40
2018-12-31T20:46:44.565Z,48.40
2018-12-31T20:49:13.537Z,48.40
2018-12-31T20:51:42.581Z,48.40
2018-12-31T20:54:11.526Z,48.40
2018-12-31T20:56:40.460Z,48.40
2018-12-31T20:59:09.883Z,48.40
2018-12-31T21:01:38.760Z,48.40
2018-12-31T21:04:07.846Z,48.40
2018-12-31T21:06:36.797Z,48.40
2018-12-31T21:09:07.424Z,48.50
2018-12-31T21:11:36.745Z,48.50
2018-12-31T21:14:05.777Z,48.40
2018-12-31T21:16:34.809Z,48.50
2018-12-31T21:19:03.864Z,48.30
2018-12-31T21:21:32.895Z,48.40
2018-12-31T21:24:02.017Z,48.40
2018-12-31T21:26:30.981Z,48.40
2018-12-31T21:29:00.012Z,48.40
2018-12-31T21:31:29.065Z,48.40
2018-12-31T21:33:58.166Z,48.40
2018-12-31T21:36:27.216Z,48.40
2018-12-31T21:38:56.177Z,48.40
2018-12-31T21:41:25.220Z,48.40
2018-12-31T21:43:54.193Z,48.40
2018-12-31T21:46:23.253Z,48.40
2018-12-31T21:48:52.294Z,48.30
2018-12-31T21:51:21.524Z,48.30
2018-12-31T21:53:50.480Z,48.40
2018-12-31T21:56:19.512Z,48.40
2018-12-31T21:58:48.569Z,48.30
2018-12-31T22:01:17.477Z,48.30
2018-12-31T22:03:46.876Z,48.20
2018-12-31T22:06:15.909Z,48.30
2018-12-31T22:08:44.953Z,48.30
2018-12-31T22:11:13.902Z,48.30
2018-12-31T22:13:42.953Z,48.40
2018-12-31T22:16:12.034Z,48.30
2018-12-31T22:18:41.106Z,48.30
2018-12-31T22:21:10.144Z,48.90
2018-12-31T22:23:39.146Z,48.30
2018-12-31T22:26:08.182Z,48.30
2018-12-31T22:28:37.258Z,48.20
2018-12-31T22:31:06.219Z,48.30
2018-12-31T22:33:35.174Z,48.30
2018-12-31T22:36:04.211Z,48.30
2018-12-31T22:38:33.194Z,48.20
2018-12-31T22:41:02.261Z,48.30
2018-12-31T22:43:31.262Z,48.20
2018-12-31T22:46:00.282Z,48.20
2018-12-31T22:48:29.317Z,48.30
2018-12-31T22:50:58.356Z,48.30
2018-12-31T22:53:27.313Z,48.30
2018-12-31T22:55:56.291Z,48.30
2018-12-31T22:58:25.321Z,48.20
2018-12-31T23:00:54.451Z,48.30
2018-12-31T23:03:23.481Z,48.30
2018-12-31T23:05:52.374Z,48.30
2018-12-31T23:08:21.334Z,48.20
2018-12-31T23:10:50.342Z,48.20
2018-12-31T23:13:19.399Z,48.20
2018-12-31T23:15:48.446Z,48.20
2018-12-31T23:18:17.483Z,48.20
2018-12-31T23:20:46.557Z,48.10
2018-12-31T23:23:15.537Z,48.10
2018-12-31T23:25:44.588Z,48.10
2018-12-31T23:28:13.573Z,48.20
2018-12-31T23:30:42.545Z,48.10
2018-12-31T23:33:11.789Z,48.00
2018-12-31T23:35:40.753Z,48.10
2018-12-31T23:38:09.746Z,48.10
2018-12-31T23:40:38.966Z,48.00
2018-12-31T23:43:07.992Z,48.00
2018-12-31T23:45:37.337Z,48.00
2018-12-31T23:48:06.260Z,48.00
2018-12-31T23:50:35.213Z,48.00
2018-12-31T23:53:04.275Z,47.90
2018-12-31T23:55:33.323Z,48.00
2018-12-31T23:58:02.965Z,47.90
